sensor_id;sensor_type;location;lat;lon;timestamp;temperature;humidity
610;DHT22;292;48.800;9.216;2023-10-19T00:01:14;13.60;84.20
610;DHT22;292;48.800;9.216;2023-10-19T00:03:41;13.60;84.20
610;DHT22;292;48.800;9.216;2023-10-19T00:06:09;13.60;84.20
610;DHT22;292;48.800;9.216;2023-10-19T00:08:36;13.60;84.40
610;DHT22;292;48.800;9.216;2023-10-19T00:11:07;13.60;84.40
610;DHT22;292;48.800;9.216;2023-10-19T00:13:34;13.50;84.50
610;DHT22;292;48.800;9.216;2023-10-19T00:16:03;13.50;84.70
610;DHT22;292;48.800;9.216;2023-10-19T00:18:37;13.50;84.70
610;DHT22;292;48.800;9.216;2023-10-19T00:21:07;13.50;84.90
610;DHT22;292;48.800;9.216;2023-10-19T00:23:45;13.50;84.90
610;DHT22;292;48.800;9.216;2023-10-19T00:26:13;13.50;85.20
610;DHT22;292;48.800;9.216;2023-10-19T00:28:43;13.50;85.40
610;DHT22;292;48.800;9.216;2023-10-19T00:31:13;13.50;85.70
610;DHT22;292;48.800;9.216;2023-10-19T00:33:40;13.50;85.80
610;DHT22;292;48.800;9.216;2023-10-19T00:36:07;13.60;86.00
610;DHT22;292;48.800;9.216;2023-10-19T00:38:36;13.60;86.10
610;DHT22;292;48.800;9.216;2023-10-19T00:41:06;13.60;86.20
610;DHT22;292;48.800;9.216;2023-10-19T00:43:38;13.60;86.50
610;DHT22;292;48.800;9.216;2023-10-19T00:46:08;13.60;86.70
610;DHT22;292;48.800;9.216;2023-10-19T00:48:44;13.70;87.00
610;DHT22;292;48.800;9.216;2023-10-19T00:51:14;13.70;87.00
610;DHT22;292;48.800;9.216;2023-10-19T00:53:54;13.70;87.10
610;DHT22;292;48.800;9.216;2023-10-19T00:56:23;13.80;87.10
610;DHT22;292;48.800;9.216;2023-10-19T00:58:53;13.80;87.30
610;DHT22;292;48.800;9.216;2023-10-19T01:01:33;13.80;87.30
610;DHT22;292;48.800;9.216;2023-10-19T01:04:07;13.90;87.40
610;DHT22;292;48.800;9.216;2023-10-19T01:06:39;13.90;87.40
610;DHT22;292;48.800;9.216;2023-10-19T01:09:10;13.90;87.50
610;DHT22;292;48.800;9.216;2023-10-19T01:11:41;13.90;87.70
610;DHT22;292;48.800;9.216;2023-10-19T01:14:20;13.90;87.70
610;DHT22;292;48.800;9.216;2023-10-19T01:16:48;13.90;87.80
610;DHT22;292;48.800;9.216;2023-10-19T01:19:18;13.90;87.80
610;DHT22;292;48.800;9.216;2023-10-19T01:21:46;13.90;87.80
610;DHT22;292;48.800;9.216;2023-10-19T01:24:19;13.90;88.00
610;DHT22;292;48.800;9.216;2023-10-19T01:26:53;13.90;88.00
610;DHT22;292;48.800;9.216;2023-10-19T01:29:22;13.90;88.10
610;DHT22;292;48.800;9.216;2023-10-19T01:31:52;13.90;88.00
610;DHT22;292;48.800;9.216;2023-10-19T01:34:30;13.90;88.10
610;DHT22;292;48.800;9.216;2023-10-19T01:36:59;13.90;88.10
610;DHT22;292;48.800;9.216;2023-10-19T01:39:30;14.00;88.10
610;DHT22;292;48.800;9.216;2023-10-19T01:41:56;14.00;88.00
610;DHT22;292;48.800;9.216;2023-10-19T01:44:24;14.00;88.30
610;DHT22;292;48.800;9.216;2023-10-19T01:46:51;14.00;88.30
610;DHT22;292;48.800;9.216;2023-10-19T01:49:18;14.00;88.40
610;DHT22;292;48.800;9.216;2023-10-19T01:51:51;14.00;88.40
610;DHT22;292;48.800;9.216;2023-10-19T01:54:19;14.10;88.40
610;DHT22;292;48.800;9.216;2023-10-19T01:56:52;14.10;88.40
610;DHT22;292;48.800;9.216;2023-10-19T01:59:21;14.10;88.40
610;DHT22;292;48.800;9.216;2023-10-19T02:01:48;14.10;88.40
610;DHT22;292;48.800;9.216;2023-10-19T02:04:17;14.20;88.40
610;DHT22;292;48.800;9.216;2023-10-19T02:06:43;14.20;88.30
610;DHT22;292;48.800;9.216;2023-10-19T02:09:13;14.20;88.40
610;DHT22;292;48.800;9.216;2023-10-19T02:11:48;14.20;88.70
610;DHT22;292;48.800;9.216;2023-10-19T02:14:19;14.20;88.70
610;DHT22;292;48.800;9.216;2023-10-19T02:16:46;14.20;88.70
610;DHT22;292;48.800;9.216;2023-10-19T02:19:16;14.30;88.70
610;DHT22;292;48.800;9.216;2023-10-19T02:21:42;14.30;88.60
610;DHT22;292;48.800;9.216;2023-10-19T02:24:13;14.30;88.70
610;DHT22;292;48.800;9.216;2023-10-19T02:26:40;14.30;88.70
610;DHT22;292;48.800;9.216;2023-10-19T02:29:07;14.30;88.70
610;DHT22;292;48.800;9.216;2023-10-19T02:31:37;14.30;88.70
610;DHT22;292;48.800;9.216;2023-10-19T02:34:06;14.30;88.60
610;DHT22;292;48.800;9.216;2023-10-19T02:36:33;14.30;88.70
610;DHT22;292;48.800;9.216;2023-10-19T02:39:04;14.40;88.70
610;DHT22;292;48.800;9.216;2023-10-19T02:41:33;14.40;88.70
610;DHT22;292;48.800;9.216;2023-10-19T02:44:00;14.40;88.60
610;DHT22;292;48.800;9.216;2023-10-19T02:46:28;14.40;88.70
610;DHT22;292;48.800;9.216;2023-10-19T02:48:56;14.40;88.60
610;DHT22;292;48.800;9.216;2023-10-19T02:51:22;14.40;88.60
610;DHT22;292;48.800;9.216;2023-10-19T02:53:49;14.40;88.60
610;DHT22;292;48.800;9.216;2023-10-19T02:56:16;14.40;88.40
610;DHT22;292;48.800;9.216;2023-10-19T02:58:46;14.40;88.40
610;DHT22;292;48.800;9.216;2023-10-19T03:01:16;14.40;88.30
610;DHT22;292;48.800;9.216;2023-10-19T03:03:48;14.40;88.30
610;DHT22;292;48.800;9.216;2023-10-19T03:06:18;14.40;88.30
610;DHT22;292;48.800;9.216;2023-10-19T03:08:45;14.40;88.40
610;DHT22;292;48.800;9.216;2023-10-19T03:11:12;14.40;88.30
610;DHT22;292;48.800;9.216;2023-10-19T03:13:39;14.40;88.30
610;DHT22;292;48.800;9.216;2023-10-19T03:16:06;14.40;88.40
610;DHT22;292;48.800;9.216;2023-10-19T03:18:33;14.40;88.40
610;DHT22;292;48.800;9.216;2023-10-19T03:21:01;14.40;88.40
610;DHT22;292;48.800;9.216;2023-10-19T03:23:29;14.40;88.40
610;DHT22;292;48.800;9.216;2023-10-19T03:26:00;14.40;88.40
610;DHT22;292;48.800;9.216;2023-10-19T03:28:53;14.40;88.40
610;DHT22;292;48.800;9.216;2023-10-19T03:31:22;14.40;88.30
610;DHT22;292;48.800;9.216;2023-10-19T03:33:50;14.40;88.40
610;DHT22;292;48.800;9.216;2023-10-19T03:36:21;14.40;88.40
610;DHT22;292;48.800;9.216;2023-10-19T03:38:50;14.40;88.30
610;DHT22;292;48.800;9.216;2023-10-19T03:41:18;14.40;88.60
610;DHT22;292;48.800;9.216;2023-10-19T03:43:48;14.40;88.30
610;DHT22;292;48.800;9.216;2023-10-19T03:46:17;14.40;88.40
610;DHT22;292;48.800;9.216;2023-10-19T03:48:54;14.40;88.40
610;DHT22;292;48.800;9.216;2023-10-19T03:51:24;14.40;88.40
610;DHT22;292;48.800;9.216;2023-10-19T03:53:53;14.40;88.40
610;DHT22;292;48.800;9.216;2023-10-19T03:56:26;14.40;88.60
610;DHT22;292;48.800;9.216;2023-10-19T03:58:58;14.30;88.60
610;DHT22;292;48.800;9.216;2023-10-19T04:01:25;14.30;88.70
610;DHT22;292;48.800;9.216;2023-10-19T04:03:52;14.30;88.70
610;DHT22;292;48.800;9.216;2023-10-19T04:06:20;14.30;88.70
610;DHT22;292;48.800;9.216;2023-10-19T04:08:47;14.40;88.70
610;DHT22;292;48.800;9.216;2023-10-19T04:11:18;14.40;88.70
610;DHT22;292;48.800;9.216;2023-10-19T04:13:58;14.40;88.60
610;DHT22;292;48.800;9.216;2023-10-19T04:16:29;14.40;88.40
610;DHT22;292;48.800;9.216;2023-10-19T04:18:56;14.40;88.30
610;DHT22;292;48.800;9.216;2023-10-19T04:21:23;14.40;88.30
610;DHT22;292;48.800;9.216;2023-10-19T04:23:50;14.40;88.30
610;DHT22;292;48.800;9.216;2023-10-19T04:26:19;14.40;88.40
610;DHT22;292;48.800;9.216;2023-10-19T04:28:46;14.40;88.30
610;DHT22;292;48.800;9.216;2023-10-19T04:31:16;14.30;88.10
610;DHT22;292;48.800;9.216;2023-10-19T04:33:45;14.30;88.30
610;DHT22;292;48.800;9.216;2023-10-19T04:36:15;14.30;88.30
610;DHT22;292;48.800;9.216;2023-10-19T04:38:45;14.30;88.30
610;DHT22;292;48.800;9.216;2023-10-19T04:41:12;14.30;88.30
610;DHT22;292;48.800;9.216;2023-10-19T04:43:42;14.30;88.30
610;DHT22;292;48.800;9.216;2023-10-19T04:46:15;14.30;88.30
610;DHT22;292;48.800;9.216;2023-10-19T04:48:44;14.40;88.30
610;DHT22;292;48.800;9.216;2023-10-19T04:51:11;14.40;88.30
610;DHT22;292;48.800;9.216;2023-10-19T04:53:39;14.40;88.30
610;DHT22;292;48.800;9.216;2023-10-19T04:56:06;14.40;88.30
610;DHT22;292;48.800;9.216;2023-10-19T04:58:35;14.40;88.40
610;DHT22;292;48.800;9.216;2023-10-19T05:01:04;14.40;88.30
610;DHT22;292;48.800;9.216;2023-10-19T05:03:31;14.40;88.30
610;DHT22;292;48.800;9.216;2023-10-19T05:05:59;14.40;88.30
610;DHT22;292;48.800;9.216;2023-10-19T05:08:27;14.40;88.30
610;DHT22;292;48.800;9.216;2023-10-19T05:10:55;14.40;88.30
610;DHT22;292;48.800;9.216;2023-10-19T05:13:23;14.40;88.30
610;DHT22;292;48.800;9.216;2023-10-19T05:15:51;14.40;88.30
610;DHT22;292;48.800;9.216;2023-10-19T05:18:20;14.40;88.30
610;DHT22;292;48.800;9.216;2023-10-19T05:20:47;14.40;88.30
610;DHT22;292;48.800;9.216;2023-10-19T05:23:15;14.40;88.10
610;DHT22;292;48.800;9.216;2023-10-19T05:25:42;14.30;88.40
610;DHT22;292;48.800;9.216;2023-10-19T05:28:09;14.40;88.40
610;DHT22;292;48.800;9.216;2023-10-19T05:30:36;14.40;88.40
610;DHT22;292;48.800;9.216;2023-10-19T05:33:03;14.40;88.40
610;DHT22;292;48.800;9.216;2023-10-19T05:35:33;14.40;88.40
610;DHT22;292;48.800;9.216;2023-10-19T05:38:06;14.40;88.30
610;DHT22;292;48.800;9.216;2023-10-19T05:40:33;14.40;88.10
610;DHT22;292;48.800;9.216;2023-10-19T05:43:02;14.40;88.10
610;DHT22;292;48.800;9.216;2023-10-19T05:45:29;14.40;88.30
610;DHT22;292;48.800;9.216;2023-10-19T05:47:57;14.40;88.10
610;DHT22;292;48.800;9.216;2023-10-19T05:50:25;14.40;88.30
610;DHT22;292;48.800;9.216;2023-10-19T05:52:55;14.40;88.10
610;DHT22;292;48.800;9.216;2023-10-19T05:55:22;14.40;88.10
610;DHT22;292;48.800;9.216;2023-10-19T05:57:49;14.40;88.00
610;DHT22;292;48.800;9.216;2023-10-19T06:00:16;14.40;88.00
610;DHT22;292;48.800;9.216;2023-10-19T06:02:47;14.40;88.10
610;DHT22;292;48.800;9.216;2023-10-19T06:05:16;14.40;88.00
610;DHT22;292;48.800;9.216;2023-10-19T06:07:43;14.40;88.10
610;DHT22;292;48.800;9.216;2023-10-19T06:10:15;14.40;88.00
610;DHT22;292;48.800;9.216;2023-10-19T06:12:43;14.40;88.00
610;DHT22;292;48.800;9.216;2023-10-19T06:15:11;14.40;88.00
610;DHT22;292;48.800;9.216;2023-10-19T06:17:38;14.40;88.10
610;DHT22;292;48.800;9.216;2023-10-19T06:20:07;14.40;88.00
610;DHT22;292;48.800;9.216;2023-10-19T06:22:46;14.40;88.00
610;DHT22;292;48.800;9.216;2023-10-19T06:25:18;14.40;87.80
610;DHT22;292;48.800;9.216;2023-10-19T06:27:47;14.40;87.80
610;DHT22;292;48.800;9.216;2023-10-19T06:30:14;14.40;87.80
610;DHT22;292;48.800;9.216;2023-10-19T06:32:49;14.40;88.00
610;DHT22;292;48.800;9.216;2023-10-19T06:35:16;14.40;88.00
610;DHT22;292;48.800;9.216;2023-10-19T06:37:43;14.40;88.00
610;DHT22;292;48.800;9.216;2023-10-19T06:40:12;14.40;88.00
610;DHT22;292;48.800;9.216;2023-10-19T06:42:42;14.50;88.00
610;DHT22;292;48.800;9.216;2023-10-19T06:45:09;14.50;88.00
610;DHT22;292;48.800;9.216;2023-10-19T06:47:39;14.50;88.10
610;DHT22;292;48.800;9.216;2023-10-19T06:50:07;14.50;88.00
610;DHT22;292;48.800;9.216;2023-10-19T06:52:35;14.50;88.00
610;DHT22;292;48.800;9.216;2023-10-19T06:55:03;14.50;88.00
610;DHT22;292;48.800;9.216;2023-10-19T06:57:31;14.50;88.00
610;DHT22;292;48.800;9.216;2023-10-19T07:00:00;14.50;88.00
610;DHT22;292;48.800;9.216;2023-10-19T07:02:36;14.50;88.00
610;DHT22;292;48.800;9.216;2023-10-19T07:05:04;14.60;88.10
610;DHT22;292;48.800;9.216;2023-10-19T07:07:31;14.60;88.00
610;DHT22;292;48.800;9.216;2023-10-19T07:09:58;14.60;88.10
610;DHT22;292;48.800;9.216;2023-10-19T07:12:25;14.60;88.10
610;DHT22;292;48.800;9.216;2023-10-19T07:14:52;14.60;88.10
610;DHT22;292;48.800;9.216;2023-10-19T07:17:20;14.60;88.10
610;DHT22;292;48.800;9.216;2023-10-19T07:19:48;14.60;88.00
610;DHT22;292;48.800;9.216;2023-10-19T07:22:15;14.70;88.00
610;DHT22;292;48.800;9.216;2023-10-19T07:24:42;14.70;87.80
610;DHT22;292;48.800;9.216;2023-10-19T07:27:10;14.70;88.00
610;DHT22;292;48.800;9.216;2023-10-19T07:29:44;14.70;88.10
610;DHT22;292;48.800;9.216;2023-10-19T07:32:11;14.70;88.00
610;DHT22;292;48.800;9.216;2023-10-19T07:34:40;14.70;88.10
610;DHT22;292;48.800;9.216;2023-10-19T07:37:08;14.70;88.10
610;DHT22;292;48.800;9.216;2023-10-19T07:39:40;14.80;88.10
610;DHT22;292;48.800;9.216;2023-10-19T07:42:11;14.80;88.30
610;DHT22;292;48.800;9.216;2023-10-19T07:44:38;14.80;88.30
610;DHT22;292;48.800;9.216;2023-10-19T07:47:05;14.80;88.30
610;DHT22;292;48.800;9.216;2023-10-19T07:49:34;14.80;88.40
610;DHT22;292;48.800;9.216;2023-10-19T07:52:05;14.90;88.60
610;DHT22;292;48.800;9.216;2023-10-19T07:54:33;14.90;88.60
610;DHT22;292;48.800;9.216;2023-10-19T07:57:01;14.90;88.60
610;DHT22;292;48.800;9.216;2023-10-19T07:59:31;15.00;88.60
610;DHT22;292;48.800;9.216;2023-10-19T08:01:58;15.00;88.60
610;DHT22;292;48.800;9.216;2023-10-19T08:04:27;15.00;88.60
610;DHT22;292;48.800;9.216;2023-10-19T08:06:55;15.10;88.70
610;DHT22;292;48.800;9.216;2023-10-19T08:09:24;15.10;88.60
610;DHT22;292;48.800;9.216;2023-10-19T08:11:57;15.10;88.70
610;DHT22;292;48.800;9.216;2023-10-19T08:14:25;15.20;88.80
610;DHT22;292;48.800;9.216;2023-10-19T08:16:52;15.20;88.80
610;DHT22;292;48.800;9.216;2023-10-19T08:19:19;15.30;88.80
610;DHT22;292;48.800;9.216;2023-10-19T08:21:47;15.40;88.70
610;DHT22;292;48.800;9.216;2023-10-19T08:24:14;15.40;88.80
610;DHT22;292;48.800;9.216;2023-10-19T08:26:45;15.50;89.00
610;DHT22;292;48.800;9.216;2023-10-19T08:29:12;15.50;88.80
610;DHT22;292;48.800;9.216;2023-10-19T08:31:40;15.60;88.80
610;DHT22;292;48.800;9.216;2023-10-19T08:34:07;15.70;88.80
610;DHT22;292;48.800;9.216;2023-10-19T08:36:37;15.70;88.80
610;DHT22;292;48.800;9.216;2023-10-19T08:39:04;15.80;88.70
610;DHT22;292;48.800;9.216;2023-10-19T08:41:33;15.90;88.60
610;DHT22;292;48.800;9.216;2023-10-19T08:44:05;16.00;88.60
610;DHT22;292;48.800;9.216;2023-10-19T08:46:36;16.10;88.30
610;DHT22;292;48.800;9.216;2023-10-19T08:49:05;16.20;88.10
610;DHT22;292;48.800;9.216;2023-10-19T08:51:35;16.30;87.50
610;DHT22;292;48.800;9.216;2023-10-19T08:54:03;16.40;87.50
610;DHT22;292;48.800;9.216;2023-10-19T08:56:31;16.50;87.40
610;DHT22;292;48.800;9.216;2023-10-19T08:58:59;16.60;87.10
610;DHT22;292;48.800;9.216;2023-10-19T09:01:28;16.70;86.80
610;DHT22;292;48.800;9.216;2023-10-19T09:03:57;16.90;86.40
610;DHT22;292;48.800;9.216;2023-10-19T09:06:24;17.00;85.80
610;DHT22;292;48.800;9.216;2023-10-19T09:08:51;17.10;85.40
610;DHT22;292;48.800;9.216;2023-10-19T09:11:18;17.20;84.80
610;DHT22;292;48.800;9.216;2023-10-19T09:13:47;17.30;84.40
610;DHT22;292;48.800;9.216;2023-10-19T09:16:18;17.30;84.10
610;DHT22;292;48.800;9.216;2023-10-19T09:18:47;17.40;83.60
610;DHT22;292;48.800;9.216;2023-10-19T09:21:16;17.60;83.50
610;DHT22;292;48.800;9.216;2023-10-19T09:23:50;17.70;83.40
610;DHT22;292;48.800;9.216;2023-10-19T09:26:23;17.90;82.90
610;DHT22;292;48.800;9.216;2023-10-19T09:28:52;18.00;82.40
610;DHT22;292;48.800;9.216;2023-10-19T09:31:20;18.10;82.00
610;DHT22;292;48.800;9.216;2023-10-19T09:33:51;18.20;81.40
610;DHT22;292;48.800;9.216;2023-10-19T09:36:19;18.30;81.00
610;DHT22;292;48.800;9.216;2023-10-19T09:38:50;18.40;80.30
610;DHT22;292;48.800;9.216;2023-10-19T09:41:18;18.40;79.90
610;DHT22;292;48.800;9.216;2023-10-19T09:43:46;18.40;79.70
610;DHT22;292;48.800;9.216;2023-10-19T09:46:21;18.50;79.70
610;DHT22;292;48.800;9.216;2023-10-19T09:48:51;18.50;79.40
610;DHT22;292;48.800;9.216;2023-10-19T09:51:19;18.50;79.10
610;DHT22;292;48.800;9.216;2023-10-19T09:53:49;18.60;79.10
610;DHT22;292;48.800;9.216;2023-10-19T09:56:22;18.70;79.00
610;DHT22;292;48.800;9.216;2023-10-19T09:58:55;18.70;78.80
610;DHT22;292;48.800;9.216;2023-10-19T10:01:24;18.70;78.70
610;DHT22;292;48.800;9.216;2023-10-19T10:03:54;18.70;78.60
610;DHT22;292;48.800;9.216;2023-10-19T10:06:59;18.70;78.60
610;DHT22;292;48.800;9.216;2023-10-19T10:09:26;18.70;78.10
610;DHT22;292;48.800;9.216;2023-10-19T10:11:55;18.70;78.00
610;DHT22;292;48.800;9.216;2023-10-19T10:14:24;18.70;77.80
610;DHT22;292;48.800;9.216;2023-10-19T10:16:59;18.70;77.50
610;DHT22;292;48.800;9.216;2023-10-19T10:19:29;18.70;77.40
610;DHT22;292;48.800;9.216;2023-10-19T10:22:04;18.70;77.30
610;DHT22;292;48.800;9.216;2023-10-19T10:24:32;18.70;77.10
610;DHT22;292;48.800;9.216;2023-10-19T10:27:05;18.70;77.10
610;DHT22;292;48.800;9.216;2023-10-19T10:29:32;18.70;77.10
610;DHT22;292;48.800;9.216;2023-10-19T10:31:59;18.70;77.00
610;DHT22;292;48.800;9.216;2023-10-19T10:34:43;18.70;77.10
610;DHT22;292;48.800;9.216;2023-10-19T10:37:13;18.70;77.00
610;DHT22;292;48.800;9.216;2023-10-19T10:39:40;18.70;77.00
610;DHT22;292;48.800;9.216;2023-10-19T10:42:10;18.70;76.80
610;DHT22;292;48.800;9.216;2023-10-19T10:44:39;18.70;76.70
610;DHT22;292;48.800;9.216;2023-10-19T10:47:10;18.70;76.70
610;DHT22;292;48.800;9.216;2023-10-19T10:49:49;18.80;76.70
610;DHT22;292;48.800;9.216;2023-10-19T10:52:24;18.80;76.70
610;DHT22;292;48.800;9.216;2023-10-19T10:54:51;18.80;76.70
610;DHT22;292;48.800;9.216;2023-10-19T10:57:19;18.80;76.40
610;DHT22;292;48.800;9.216;2023-10-19T10:59:46;18.80;76.40
610;DHT22;292;48.800;9.216;2023-10-19T11:02:17;18.80;76.40
610;DHT22;292;48.800;9.216;2023-10-19T11:04:45;18.80;76.40
610;DHT22;292;48.800;9.216;2023-10-19T11:07:19;18.80;76.40
610;DHT22;292;48.800;9.216;2023-10-19T11:09:47;18.80;76.70
610;DHT22;292;48.800;9.216;2023-10-19T11:12:15;18.80;77.00
610;DHT22;292;48.800;9.216;2023-10-19T11:14:52;18.80;77.10
610;DHT22;292;48.800;9.216;2023-10-19T11:17:20;18.80;77.40
610;DHT22;292;48.800;9.216;2023-10-19T11:19:54;18.80;77.40
610;DHT22;292;48.800;9.216;2023-10-19T11:22:24;18.80;77.50
610;DHT22;292;48.800;9.216;2023-10-19T11:24:52;18.80;77.70
610;DHT22;292;48.800;9.216;2023-10-19T11:27:24;18.80;78.00
610;DHT22;292;48.800;9.216;2023-10-19T11:29:55;18.80;78.30
610;DHT22;292;48.800;9.216;2023-10-19T11:32:22;18.80;78.70
610;DHT22;292;48.800;9.216;2023-10-19T11:34:51;18.80;79.00
610;DHT22;292;48.800;9.216;2023-10-19T11:37:18;18.80;79.30
610;DHT22;292;48.800;9.216;2023-10-19T11:39:47;18.80;79.40
610;DHT22;292;48.800;9.216;2023-10-19T11:42:15;18.80;79.70
610;DHT22;292;48.800;9.216;2023-10-19T11:44:43;18.80;80.00
610;DHT22;292;48.800;9.216;2023-10-19T11:47:11;18.70;80.40
610;DHT22;292;48.800;9.216;2023-10-19T11:49:39;18.70;80.90
610;DHT22;292;48.800;9.216;2023-10-19T11:52:06;18.70;81.00
610;DHT22;292;48.800;9.216;2023-10-19T11:54:33;18.70;81.30
610;DHT22;292;48.800;9.216;2023-10-19T11:57:02;18.70;81.60
610;DHT22;292;48.800;9.216;2023-10-19T11:59:29;18.60;81.70
610;DHT22;292;48.800;9.216;2023-10-19T12:01:56;18.60;82.00
610;DHT22;292;48.800;9.216;2023-10-19T12:04:24;18.60;82.10
610;DHT22;292;48.800;9.216;2023-10-19T12:06:51;18.60;82.40
610;DHT22;292;48.800;9.216;2023-10-19T12:09:18;18.50;82.60
610;DHT22;292;48.800;9.216;2023-10-19T12:11:50;18.50;82.90
610;DHT22;292;48.800;9.216;2023-10-19T12:14:20;18.50;83.20
610;DHT22;292;48.800;9.216;2023-10-19T12:16:48;18.40;83.40
610;DHT22;292;48.800;9.216;2023-10-19T12:19:15;18.40;83.60
610;DHT22;292;48.800;9.216;2023-10-19T12:21:44;18.40;83.90
610;DHT22;292;48.800;9.216;2023-10-19T12:24:11;18.40;84.40
610;DHT22;292;48.800;9.216;2023-10-19T12:26:40;18.40;84.70
610;DHT22;292;48.800;9.216;2023-10-19T12:29:07;18.30;84.90
610;DHT22;292;48.800;9.216;2023-10-19T12:31:38;18.30;85.20
610;DHT22;292;48.800;9.216;2023-10-19T12:34:06;18.30;85.50
610;DHT22;292;48.800;9.216;2023-10-19T12:36:34;18.30;85.70
610;DHT22;292;48.800;9.216;2023-10-19T12:39:01;18.30;86.00
610;DHT22;292;48.800;9.216;2023-10-19T12:41:31;18.30;86.10
610;DHT22;292;48.800;9.216;2023-10-19T12:43:58;18.30;86.20
610;DHT22;292;48.800;9.216;2023-10-19T12:46:27;18.20;86.50
610;DHT22;292;48.800;9.216;2023-10-19T12:48:57;18.20;86.70
610;DHT22;292;48.800;9.216;2023-10-19T12:51:25;18.20;86.70
610;DHT22;292;48.800;9.216;2023-10-19T12:53:52;18.20;87.00
610;DHT22;292;48.800;9.216;2023-10-19T12:56:19;18.20;87.10
610;DHT22;292;48.800;9.216;2023-10-19T12:58:46;18.20;87.30
610;DHT22;292;48.800;9.216;2023-10-19T13:01:15;18.20;87.30
610;DHT22;292;48.800;9.216;2023-10-19T13:03:44;18.20;87.40
610;DHT22;292;48.800;9.216;2023-10-19T13:06:13;18.20;87.40
610;DHT22;292;48.800;9.216;2023-10-19T13:08:40;18.20;87.40
610;DHT22;292;48.800;9.216;2023-10-19T13:11:09;18.20;87.40
610;DHT22;292;48.800;9.216;2023-10-19T13:13:39;18.20;87.10
610;DHT22;292;48.800;9.216;2023-10-19T13:16:06;18.20;87.30
610;DHT22;292;48.800;9.216;2023-10-19T13:18:35;18.20;87.30
610;DHT22;292;48.800;9.216;2023-10-19T13:21:02;18.20;87.30
610;DHT22;292;48.800;9.216;2023-10-19T13:23:32;18.10;87.30
610;DHT22;292;48.800;9.216;2023-10-19T13:26:00;18.20;87.40
610;DHT22;292;48.800;9.216;2023-10-19T13:28:42;18.20;87.30
610;DHT22;292;48.800;9.216;2023-10-19T13:31:12;18.20;87.40
610;DHT22;292;48.800;9.216;2023-10-19T13:33:40;18.20;87.40
610;DHT22;292;48.800;9.216;2023-10-19T13:36:09;18.20;87.30
610;DHT22;292;48.800;9.216;2023-10-19T13:38:38;18.20;87.30
610;DHT22;292;48.800;9.216;2023-10-19T13:41:05;18.10;87.30
610;DHT22;292;48.800;9.216;2023-10-19T13:43:35;18.10;87.40
610;DHT22;292;48.800;9.216;2023-10-19T13:46:02;18.10;87.40
610;DHT22;292;48.800;9.216;2023-10-19T13:48:30;18.10;87.40
610;DHT22;292;48.800;9.216;2023-10-19T13:50:57;18.10;87.40
610;DHT22;292;48.800;9.216;2023-10-19T13:53:31;18.10;87.40
610;DHT22;292;48.800;9.216;2023-10-19T13:56:00;18.10;87.70
610;DHT22;292;48.800;9.216;2023-10-19T13:58:26;18.10;87.70
610;DHT22;292;48.800;9.216;2023-10-19T14:00:53;18.10;87.70
610;DHT22;292;48.800;9.216;2023-10-19T14:03:22;18.10;87.80
610;DHT22;292;48.800;9.216;2023-10-19T14:05:49;18.00;88.00
610;DHT22;292;48.800;9.216;2023-10-19T14:08:17;18.10;88.10
610;DHT22;292;48.800;9.216;2023-10-19T14:10:46;18.10;88.00
610;DHT22;292;48.800;9.216;2023-10-19T14:13:14;18.10;88.10
610;DHT22;292;48.800;9.216;2023-10-19T14:15:41;18.10;88.00
610;DHT22;292;48.800;9.216;2023-10-19T14:18:09;18.00;88.00
610;DHT22;292;48.800;9.216;2023-10-19T14:20:36;18.00;88.00
610;DHT22;292;48.800;9.216;2023-10-19T14:23:05;18.00;88.00
610;DHT22;292;48.800;9.216;2023-10-19T14:25:35;18.00;87.80
610;DHT22;292;48.800;9.216;2023-10-19T14:28:03;18.00;87.80
610;DHT22;292;48.800;9.216;2023-10-19T14:30:33;18.00;88.00
610;DHT22;292;48.800;9.216;2023-10-19T14:33:01;18.00;88.00
610;DHT22;292;48.800;9.216;2023-10-19T14:35:28;18.00;88.00
610;DHT22;292;48.800;9.216;2023-10-19T14:37:56;18.00;88.00
610;DHT22;292;48.800;9.216;2023-10-19T14:40:26;18.10;88.00
610;DHT22;292;48.800;9.216;2023-10-19T14:42:54;18.10;88.00
610;DHT22;292;48.800;9.216;2023-10-19T14:45:25;18.10;88.00
610;DHT22;292;48.800;9.216;2023-10-19T14:47:56;18.10;88.00
610;DHT22;292;48.800;9.216;2023-10-19T14:50:25;18.10;88.00
610;DHT22;292;48.800;9.216;2023-10-19T14:52:53;18.10;88.00
610;DHT22;292;48.800;9.216;2023-10-19T14:55:21;18.10;88.00
610;DHT22;292;48.800;9.216;2023-10-19T14:57:50;18.10;88.00
610;DHT22;292;48.800;9.216;2023-10-19T15:00:19;18.10;88.00
610;DHT22;292;48.800;9.216;2023-10-19T15:02:52;18.00;88.00
610;DHT22;292;48.800;9.216;2023-10-19T15:05:23;18.00;88.10
610;DHT22;292;48.800;9.216;2023-10-19T15:07:51;18.00;88.10
610;DHT22;292;48.800;9.216;2023-10-19T15:10:19;18.00;88.40
610;DHT22;292;48.800;9.216;2023-10-19T15:12:47;18.00;88.40
610;DHT22;292;48.800;9.216;2023-10-19T15:15:14;18.00;88.60
610;DHT22;292;48.800;9.216;2023-10-19T15:17:42;18.00;88.60
610;DHT22;292;48.800;9.216;2023-10-19T15:20:11;18.00;88.70
610;DHT22;292;48.800;9.216;2023-10-19T15:22:41;18.00;88.80
610;DHT22;292;48.800;9.216;2023-10-19T15:25:09;18.00;88.80
610;DHT22;292;48.800;9.216;2023-10-19T15:27:42;18.00;89.00
610;DHT22;292;48.800;9.216;2023-10-19T15:30:11;18.00;89.00
610;DHT22;292;48.800;9.216;2023-10-19T15:32:39;18.00;89.10
610;DHT22;292;48.800;9.216;2023-10-19T15:35:07;18.00;89.10
610;DHT22;292;48.800;9.216;2023-10-19T15:37:37;18.00;89.10
610;DHT22;292;48.800;9.216;2023-10-19T15:40:07;18.00;89.30
610;DHT22;292;48.800;9.216;2023-10-19T15:42:38;18.00;89.40
610;DHT22;292;48.800;9.216;2023-10-19T15:45:08;18.00;89.40
610;DHT22;292;48.800;9.216;2023-10-19T15:47:35;18.10;89.40
610;DHT22;292;48.800;9.216;2023-10-19T15:50:02;18.10;89.40
610;DHT22;292;48.800;9.216;2023-10-19T15:52:29;18.10;89.40
610;DHT22;292;48.800;9.216;2023-10-19T15:54:57;18.10;89.40
610;DHT22;292;48.800;9.216;2023-10-19T15:57:26;18.10;89.30
610;DHT22;292;48.800;9.216;2023-10-19T15:59:54;18.10;89.30
610;DHT22;292;48.800;9.216;2023-10-19T16:02:21;18.10;89.30
610;DHT22;292;48.800;9.216;2023-10-19T16:04:48;18.20;89.10
610;DHT22;292;48.800;9.216;2023-10-19T16:07:15;18.20;88.80
610;DHT22;292;48.800;9.216;2023-10-19T16:09:42;18.20;89.00
610;DHT22;292;48.800;9.216;2023-10-19T16:12:10;18.20;89.00
610;DHT22;292;48.800;9.216;2023-10-19T16:14:39;18.20;89.00
610;DHT22;292;48.800;9.216;2023-10-19T16:17:06;18.20;89.00
610;DHT22;292;48.800;9.216;2023-10-19T16:19:34;18.20;88.80
610;DHT22;292;48.800;9.216;2023-10-19T16:22:01;18.20;89.00
610;DHT22;292;48.800;9.216;2023-10-19T16:24:29;18.20;89.00
610;DHT22;292;48.800;9.216;2023-10-19T16:26:55;18.20;88.80
610;DHT22;292;48.800;9.216;2023-10-19T16:29:22;18.20;88.80
610;DHT22;292;48.800;9.216;2023-10-19T16:31:53;18.20;88.70
610;DHT22;292;48.800;9.216;2023-10-19T16:34:21;18.20;88.70
610;DHT22;292;48.800;9.216;2023-10-19T16:36:48;18.20;88.70
610;DHT22;292;48.800;9.216;2023-10-19T16:39:16;18.20;88.60
610;DHT22;292;48.800;9.216;2023-10-19T16:41:43;18.20;88.60
610;DHT22;292;48.800;9.216;2023-10-19T16:44:14;18.20;88.60
610;DHT22;292;48.800;9.216;2023-10-19T16:46:43;18.20;88.60